createdAt,value
2017-11-25T00:00:32.624Z,21.30
2017-11-25T00:01:37.839Z,20.00
2017-11-25T00:02:42.292Z,18.95
2017-11-25T00:03:46.739Z,21.55
2017-11-25T00:04:51.191Z,19.15
2017-11-25T00:05:56.486Z,19.80
2017-11-25T00:07:00.937Z,19.25
2017-11-25T00:08:06.151Z,21.27
2017-11-25T00:09:11.367Z,18.70
2017-11-25T00:10:15.835Z,17.98
2017-11-25T00:11:20.317Z,20.08
2017-11-25T00:12:26.013Z,18.35
2017-11-25T00:13:31.228Z,19.08
2017-11-25T00:14:35.678Z,18.17
2017-11-25T00:15:40.900Z,18.70
2017-11-25T00:16:45.379Z,19.35
2017-11-25T00:17:49.640Z,19.67
2017-11-25T00:18:54.090Z,20.05
2017-11-25T00:19:58.535Z,18.95
2017-11-25T00:21:04.184Z,21.87
2017-11-25T00:22:08.653Z,19.48
2017-11-25T00:23:13.148Z,20.60
2017-11-25T00:24:17.601Z,18.25
2017-11-25T00:25:22.061Z,20.50
2017-11-25T00:26:26.523Z,19.27
2017-11-25T00:27:31.235Z,20.23
2017-11-25T00:28:35.691Z,18.60
2017-11-25T00:29:40.922Z,20.12
2017-11-25T00:30:46.136Z,19.20
2017-11-25T00:31:51.361Z,18.60
2017-11-25T00:32:56.412Z,18.85
2017-11-25T00:34:00.971Z,20.27
2017-11-25T00:35:05.418Z,19.40
2017-11-25T00:36:10.712Z,18.92
2017-11-25T00:37:15.156Z,18.10
2017-11-25T00:38:20.403Z,17.25
2017-11-25T00:39:25.083Z,15.70
2017-11-25T00:40:29.536Z,17.62
2017-11-25T00:41:34.020Z,14.77
2017-11-25T00:42:39.244Z,14.40
2017-11-25T00:43:43.703Z,15.10
2017-11-25T00:44:48.159Z,14.95
2017-11-25T00:45:52.606Z,14.60
2017-11-25T00:46:57.683Z,13.38
2017-11-25T00:48:02.123Z,15.98
2017-11-25T00:49:07.363Z,15.43
2017-11-25T00:50:12.576Z,15.63
2017-11-25T00:51:17.464Z,15.50
2017-11-25T00:52:21.921Z,14.07
2017-11-25T00:53:27.129Z,15.45
2017-11-25T00:54:32.367Z,15.32
2017-11-25T00:55:37.586Z,14.70
2017-11-25T00:56:42.062Z,15.65
2017-11-25T00:57:46.588Z,16.27
2017-11-25T00:58:51.015Z,15.23
2017-11-25T00:59:55.491Z,14.75
2017-11-25T01:00:59.627Z,13.68
2017-11-25T01:02:04.074Z,15.15
2017-11-25T01:03:08.524Z,14.50
2017-11-25T01:04:12.977Z,14.73
2017-11-25T01:05:18.277Z,15.63
2017-11-25T01:06:22.713Z,13.80
2017-11-25T01:07:27.948Z,14.40
2017-11-25T01:08:33.161Z,15.45
2017-11-25T01:09:37.618Z,15.30
2017-11-25T01:10:42.114Z,15.63
2017-11-25T01:11:47.324Z,14.43
2017-11-25T01:12:52.546Z,15.00
2017-11-25T01:13:56.999Z,14.98
2017-11-25T01:15:01.437Z,17.02
2017-11-25T01:16:05.908Z,15.85
2017-11-25T01:17:10.359Z,15.77
2017-11-25T01:18:14.815Z,14.70
2017-11-25T01:19:20.035Z,15.82
2017-11-25T01:20:25.251Z,13.23
2017-11-25T01:21:29.753Z,15.45
2017-11-25T01:22:34.619Z,15.35
2017-11-25T01:23:39.832Z,16.15
2017-11-25T01:24:45.392Z,14.90
2017-11-25T01:25:49.846Z,14.45
2017-11-25T01:26:54.311Z,15.65
2017-11-25T01:27:58.764Z,14.75
2017-11-25T01:29:03.218Z,14.45
2017-11-25T01:30:08.436Z,14.32
2017-11-25T01:31:13.281Z,15.50
2017-11-25T01:32:18.528Z,14.63
2017-11-25T01:33:23.278Z,13.40
2017-11-25T01:34:27.055Z,13.25
2017-11-25T01:35:31.511Z,14.50
2017-11-25T01:36:36.889Z,14.65
2017-11-25T01:37:41.364Z,14.70
2017-11-25T01:38:46.596Z,13.30
2017-11-25T01:39:51.046Z,14.52
2017-11-25T01:40:55.496Z,12.95
2017-11-25T01:42:00.736Z,13.18
2017-11-25T01:43:05.979Z,14.60
2017-11-25T01:44:10.240Z,11.63
2017-11-25T01:45:14.696Z,12.48
2017-11-25T01:46:19.152Z,12.95
2017-11-25T01:47:23.983Z,13.98
2017-11-25T01:48:28.451Z,14.43
2017-11-25T01:49:32.938Z,13.88
2017-11-25T01:50:37.959Z,14.35
2017-11-25T01:51:43.175Z,14.93
2017-11-25T01:52:47.446Z,14.48
2017-11-25T01:53:51.924Z,14.00
2017-11-25T01:54:56.197Z,13.57
2017-11-25T01:55:59.804Z,14.85
2017-11-25T01:57:04.354Z,14.45
2017-11-25T01:58:08.151Z,13.70
2017-11-25T01:59:12.455Z,14.15
2017-11-25T02:00:16.573Z,13.60
2017-11-25T02:01:21.031Z,14.20
2017-11-25T02:02:26.246Z,15.38
2017-11-25T02:03:30.695Z,14.90
2017-11-25T02:04:35.958Z,13.25
2017-11-25T02:05:40.410Z,15.50
2017-11-25T02:06:45.430Z,16.12
2017-11-25T02:07:50.650Z,15.02
2017-11-25T02:08:55.100Z,14.48
2017-11-25T02:09:59.420Z,14.45
2017-11-25T02:11:03.531Z,14.60
2017-11-25T02:12:07.987Z,15.68
2017-11-25T02:13:12.435Z,15.43
2017-11-25T02:14:16.882Z,15.45
2017-11-25T02:15:21.032Z,14.85
2017-11-25T02:16:25.570Z,15.45
2017-11-25T02:17:30.291Z,17.87
2017-11-25T02:18:34.730Z,15.25
2017-11-25T02:19:39.285Z,14.50
2017-11-25T02:20:44.191Z,16.80
2017-11-25T02:21:48.307Z,16.20
2017-11-25T02:22:53.528Z,16.98
2017-11-25T02:23:57.316Z,15.88
2017-11-25T02:25:01.120Z,17.23
2017-11-25T02:26:05.625Z,16.37
2017-11-25T02:27:09.412Z,16.73
2017-11-25T02:28:13.211Z,17.42
2017-11-25T02:29:17.008Z,18.98
2017-11-25T02:30:21.117Z,15.43
2017-11-25T02:31:24.932Z,17.95
2017-11-25T02:32:29.478Z,17.08
2017-11-25T02:33:33.275Z,16.60
2017-11-25T02:34:37.079Z,17.70
2017-11-25T02:35:41.049Z,17.62
2017-11-25T02:36:45.196Z,17.87
2017-11-25T02:37:48.988Z,17.00
2017-11-25T02:38:52.780Z,19.45
2017-11-25T02:39:57.128Z,17.05
2017-11-25T02:41:01.687Z,18.58
2017-11-25T02:42:05.506Z,18.30
2017-11-25T02:43:09.611Z,17.45
2017-11-25T02:44:13.408Z,18.17
2017-11-25T02:45:17.527Z,16.08
2017-11-25T02:46:22.762Z,18.05
2017-11-25T02:47:27.687Z,19.10
2017-11-25T02:48:32.132Z,17.62
2017-11-25T02:49:36.584Z,16.48
2017-11-25T02:50:40.991Z,15.35
2017-11-25T02:51:44.785Z,15.75
2017-11-25T02:52:48.920Z,16.42
2017-11-25T02:53:53.824Z,16.52
2017-11-25T02:54:58.133Z,16.40
2017-11-25T02:56:02.271Z,16.65
2017-11-25T02:57:06.071Z,17.25
2017-11-25T02:58:09.886Z,15.25
2017-11-25T02:59:13.995Z,14.70
2017-11-25T03:00:18.449Z,15.70
2017-11-25T03:01:23.658Z,14.70
2017-11-25T03:02:28.104Z,15.25
2017-11-25T03:03:33.004Z,15.75
2017-11-25T03:04:37.467Z,14.68
2017-11-25T03:05:41.601Z,13.48
2017-11-25T03:06:46.037Z,14.98
2017-11-25T03:07:50.160Z,15.88
2017-11-25T03:08:55.414Z,14.10
2017-11-25T03:10:00.052Z,13.77
2017-11-25T03:11:04.520Z,14.32
2017-11-25T03:12:08.644Z,14.07
2017-11-25T03:13:12.904Z,14.15
2017-11-25T03:14:17.377Z,15.13
2017-11-25T03:15:21.815Z,15.88
2017-11-25T03:16:26.316Z,15.55
2017-11-25T03:17:30.745Z,16.25
2017-11-25T03:18:35.787Z,15.60
2017-11-25T03:19:41.027Z,16.27
2017-11-25T03:20:46.053Z,15.60
2017-11-25T03:21:51.185Z,16.92
2017-11-25T03:22:56.388Z,14.10
2017-11-25T03:24:01.607Z,14.32
2017-11-25T03:25:06.678Z,15.05
2017-11-25T03:26:11.142Z,14.95
2017-11-25T03:27:15.588Z,15.18
2017-11-25T03:28:20.036Z,15.13
2017-11-25T03:29:24.479Z,14.90
2017-11-25T03:30:29.731Z,13.30
2017-11-25T03:31:34.942Z,13.50
2017-11-25T03:32:39.384Z,14.02
2017-11-25T03:33:43.849Z,13.93
2017-11-25T03:34:48.274Z,13.68
2017-11-25T03:35:53.519Z,14.48
2017-11-25T03:36:57.975Z,13.15
2017-11-25T03:38:02.258Z,13.70
2017-11-25T03:39:06.698Z,14.65
2017-11-25T03:40:11.159Z,13.02
2017-11-25T03:41:15.631Z,13.88
2017-11-25T03:42:20.082Z,13.85
2017-11-25T03:43:24.548Z,13.43
2017-11-25T03:44:29.007Z,13.15
2017-11-25T03:45:33.447Z,13.93
2017-11-25T03:46:37.927Z,13.02
2017-11-25T03:47:42.646Z,11.85
2017-11-25T03:48:47.681Z,13.88
2017-11-25T03:49:52.124Z,14.23
2017-11-25T03:50:56.580Z,13.98
2017-11-25T03:52:01.828Z,13.43
2017-11-25T03:53:06.288Z,12.48
2017-11-25T03:54:10.225Z,13.52
2017-11-25T03:55:14.767Z,14.52
2017-11-25T03:56:18.381Z,12.82
2017-11-25T03:57:22.273Z,11.55
2017-11-25T03:58:26.735Z,13.20
2017-11-25T03:59:31.967Z,12.60
2017-11-25T04:00:36.520Z,11.80
2017-11-25T04:01:40.971Z,11.77
2017-11-25T04:02:45.443Z,13.62
2017-11-25T04:03:49.900Z,11.30
2017-11-25T04:04:55.118Z,11.05
2017-11-25T04:05:59.572Z,12.48
2017-11-25T04:07:04.121Z,12.48
2017-11-25T04:08:08.599Z,12.45
2017-11-25T04:09:13.065Z,12.82
2017-11-25T04:10:17.525Z,12.23
2017-11-25T04:11:21.972Z,12.10
2017-11-25T04:12:26.443Z,10.82
2017-11-25T04:13:30.915Z,11.52
2017-11-25T04:14:36.135Z,12.60
2017-11-25T04:15:40.640Z,10.48
2017-11-25T04:16:45.558Z,10.48
2017-11-25T04:17:50.006Z,10.65
2017-11-25T04:18:55.284Z,10.15
2017-11-25T04:19:59.726Z,9.45
2017-11-25T04:21:03.969Z,9.88
2017-11-25T04:22:08.422Z,8.77
2017-11-25T04:23:12.868Z,9.05
2017-11-25T04:24:18.111Z,10.25
2017-11-25T04:25:22.575Z,10.02
2017-11-25T04:26:27.026Z,11.77
2017-11-25T04:27:31.484Z,10.30
2017-11-25T04:28:35.937Z,10.25
2017-11-25T04:29:41.179Z,10.57
2017-11-25T04:30:46.400Z,9.48
2017-11-25T04:31:51.606Z,10.05
2017-11-25T04:32:56.055Z,10.63
2017-11-25T04:34:00.511Z,10.07
2017-11-25T04:35:05.031Z,10.77
2017-11-25T04:36:09.474Z,10.55
2017-11-25T04:37:14.704Z,9.75
2017-11-25T04:38:19.911Z,9.73
2017-11-25T04:39:24.351Z,9.45
2017-11-25T04:40:28.618Z,10.32
2017-11-25T04:41:32.872Z,9.05
2017-11-25T04:42:37.327Z,11.02
2017-11-25T04:43:42.049Z,10.20
2017-11-25T04:44:46.499Z,9.70
2017-11-25T04:45:51.736Z,8.50
2017-11-25T04:46:56.175Z,9.07
2017-11-25T04:48:00.620Z,9.52
2017-11-25T04:49:05.067Z,9.45
2017-11-25T04:50:10.312Z,7.35
2017-11-25T04:51:14.763Z,9.13
2017-11-25T04:52:19.209Z,7.90
2017-11-25T04:53:24.421Z,8.77
2017-11-25T04:54:28.860Z,8.25
2017-11-25T04:55:33.298Z,8.07
2017-11-25T04:56:37.756Z,7.72
2017-11-25T04:57:41.687Z,8.65
2017-11-25T04:58:46.142Z,8.55
2017-11-25T04:59:50.376Z,8.45
2017-11-25T05:00:53.976Z,7.43
2017-11-25T05:01:58.669Z,7.68
2017-11-25T05:03:02.785Z,9.90
2017-11-25T05:04:08.096Z,9.35
2017-11-25T05:05:12.911Z,8.25
2017-11-25T05:06:17.357Z,7.37
2017-11-25T05:07:22.598Z,9.35
2017-11-25T05:08:27.823Z,8.10
2017-11-25T05:09:33.100Z,8.90
2017-11-25T05:10:38.308Z,7.95
2017-11-25T05:11:42.752Z,7.93
2017-11-25T05:12:47.212Z,7.87
2017-11-25T05:13:51.659Z,9.20
2017-11-25T05:14:56.100Z,8.50
2017-11-25T05:16:00.284Z,9.18
2017-11-25T05:17:04.944Z,10.73
2017-11-25T05:18:10.191Z,10.57
2017-11-25T05:19:14.640Z,8.50
2017-11-25T05:20:19.114Z,9.57
2017-11-25T05:21:23.543Z,8.80
2017-11-25T05:22:27.998Z,9.95
2017-11-25T05:23:33.046Z,9.85
2017-11-25T05:24:37.491Z,9.77
2017-11-25T05:25:41.740Z,9.02
2017-11-25T05:26:46.842Z,8.82
2017-11-25T05:27:51.271Z,8.57
2017-11-25T05:28:55.553Z,9.32
2017-11-25T05:29:59.989Z,9.52
2017-11-25T05:31:04.427Z,8.70
2017-11-25T05:32:08.683Z,8.73
2017-11-25T05:33:13.144Z,10.20
2017-11-25T05:34:17.454Z,9.60
2017-11-25T05:35:22.674Z,9.30
2017-11-25T05:36:27.961Z,9.40
2017-11-25T05:37:32.415Z,10.50
2017-11-25T05:38:37.436Z,9.15
2017-11-25T05:39:42.481Z,8.40
2017-11-25T05:40:46.759Z,10.10
2017-11-25T05:41:51.007Z,9.10
2017-11-25T05:42:55.275Z,10.10
2017-11-25T05:44:00.314Z,10.05
2017-11-25T05:45:04.458Z,9.02
2017-11-25T05:46:09.090Z,8.35
2017-11-25T05:47:13.528Z,8.70
2017-11-25T05:48:17.972Z,9.80
2017-11-25T05:49:22.228Z,9.00
2017-11-25T05:50:26.688Z,9.45
2017-11-25T05:51:30.943Z,8.65
2017-11-25T05:52:35.387Z,9.82
2017-11-25T05:53:40.672Z,9.45
2017-11-25T05:54:45.876Z,9.07
2017-11-25T05:55:50.338Z,10.18
2017-11-25T05:56:55.558Z,9.85
2017-11-25T05:58:00.003Z,7.93
2017-11-25T05:59:04.440Z,9.32
2017-11-25T06:00:08.881Z,8.80
2017-11-25T06:01:13.345Z,8.70
2017-11-25T06:02:17.779Z,8.30
2017-11-25T06:03:22.219Z,6.75
2017-11-25T06:04:26.651Z,6.72
2017-11-25T06:05:31.859Z,7.43
2017-11-25T06:06:36.867Z,7.50
2017-11-25T06:07:41.341Z,6.80
2017-11-25T06:08:45.770Z,6.60
2017-11-25T06:09:49.875Z,7.80
2017-11-25T06:10:54.320Z,7.25
2017-11-25T06:11:58.780Z,8.25
2017-11-25T06:13:03.229Z,7.32
2017-11-25T06:14:08.024Z,7.72
2017-11-25T06:15:12.646Z,7.25
2017-11-25T06:16:17.087Z,8.85
2017-11-25T06:17:21.569Z,7.93
2017-11-25T06:18:25.814Z,7.35
2017-11-25T06:19:31.027Z,8.35
2017-11-25T06:20:36.979Z,7.72
2017-11-25T06:21:41.427Z,7.53
2017-11-25T06:22:45.904Z,8.50
2017-11-25T06:23:50.339Z,9.65
2017-11-25T06:24:55.543Z,8.77
2017-11-25T06:25:59.796Z,8.95
2017-11-25T06:27:04.244Z,8.38
2017-11-25T06:28:08.556Z,8.60
2017-11-25T06:29:13.051Z,10.23
2017-11-25T06:30:17.503Z,9.40
2017-11-25T06:31:22.720Z,9.73
2017-11-25T06:32:27.175Z,10.02
2017-11-25T06:33:31.637Z,9.75
2017-11-25T06:34:35.892Z,11.10
2017-11-25T06:35:40.349Z,10.32
2017-11-25T06:36:44.795Z,11.00
2017-11-25T06:37:49.873Z,12.90
2017-11-25T06:38:54.386Z,11.30
2017-11-25T06:39:58.843Z,10.90
2017-11-25T06:41:03.296Z,10.52
2017-11-25T06:42:07.686Z,10.27
2017-11-25T06:43:12.357Z,11.30
2017-11-25T06:44:17.404Z,9.90
2017-11-25T06:45:21.852Z,10.70
2017-11-25T06:46:26.167Z,11.98
2017-11-25T06:47:31.056Z,11.40
2017-11-25T06:48:35.504Z,10.10
2017-11-25T06:49:39.987Z,10.77
2017-11-25T06:50:44.247Z,12.40
2017-11-25T06:51:49.474Z,13.15
2017-11-25T06:52:55.764Z,12.25
2017-11-25T06:54:00.230Z,12.10
2017-11-25T06:55:04.900Z,12.25
2017-11-25T06:56:09.380Z,11.50
2017-11-25T06:57:14.582Z,12.25
2017-11-25T06:58:19.049Z,12.23
2017-11-25T06:59:23.499Z,11.63
2017-11-25T07:00:27.657Z,13.73
2017-11-25T07:01:32.136Z,13.77
2017-11-25T07:02:37.356Z,12.57
2017-11-25T07:03:42.162Z,12.60
2017-11-25T07:04:46.615Z,14.50
2017-11-25T07:05:51.390Z,14.23
2017-11-25T07:06:55.850Z,13.07
2017-11-25T07:08:00.297Z,15.85
2017-11-25T07:09:04.087Z,14.07
2017-11-25T07:10:08.547Z,14.52
2017-11-25T07:11:13.604Z,15.43
2017-11-25T07:12:18.055Z,13.62
2017-11-25T07:13:22.327Z,14.50
2017-11-25T07:14:26.590Z,13.98
2017-11-25T07:15:31.811Z,16.10
2017-11-25T07:16:36.295Z,15.20
2017-11-25T07:17:41.084Z,14.30
2017-11-25T07:18:45.537Z,14.98
2017-11-25T07:19:49.788Z,16.40
2017-11-25T07:20:54.246Z,15.13
2017-11-25T07:21:58.546Z,15.73
2017-11-25T07:23:03.000Z,15.52
2017-11-25T07:24:08.213Z,17.35
2017-11-25T07:25:12.665Z,15.57
2017-11-25T07:26:17.116Z,15.40
2017-11-25T07:27:21.590Z,15.50
2017-11-25T07:28:26.068Z,16.50
2017-11-25T07:29:30.519Z,17.08
2017-11-25T07:30:34.973Z,14.98
2017-11-25T07:31:39.427Z,16.20
2017-11-25T07:32:43.920Z,15.70
2017-11-25T07:33:48.376Z,18.45
2017-11-25T07:34:53.119Z,16.08
2017-11-25T07:35:57.564Z,16.05
2017-11-25T07:37:02.786Z,15.85
2017-11-25T07:38:07.702Z,17.15
2017-11-25T07:39:12.151Z,15.13
2017-11-25T07:40:16.603Z,13.70
2017-11-25T07:41:20.723Z,14.32
2017-11-25T07:42:25.191Z,17.85
2017-11-25T07:43:29.935Z,14.70
2017-11-25T07:44:34.387Z,14.52
2017-11-25T07:45:38.851Z,14.90
2017-11-25T07:46:42.964Z,16.77
2017-11-25T07:47:47.417Z,16.60
2017-11-25T07:48:52.189Z,16.33
2017-11-25T07:49:56.443Z,15.20
2017-11-25T07:51:00.916Z,15.38
2017-11-25T07:52:05.375Z,14.73
2017-11-25T07:53:09.840Z,15.00
2017-11-25T07:54:15.092Z,14.93
2017-11-25T07:55:20.303Z,14.75
2017-11-25T07:56:24.764Z,15.15
2017-11-25T07:57:29.215Z,13.98
2017-11-25T07:58:33.670Z,14.50
2017-11-25T07:59:38.147Z,14.63
2017-11-25T08:00:42.644Z,15.55
2017-11-25T08:01:47.102Z,14.05
2017-11-25T08:02:51.666Z,13.85
2017-11-25T08:03:55.924Z,12.60
2017-11-25T08:05:00.408Z,12.85
2017-11-25T08:06:05.628Z,11.95
2017-11-25T08:07:09.906Z,11.45
2017-11-25T08:08:14.359Z,12.05
2017-11-25T08:09:19.586Z,11.93
2017-11-25T08:10:24.830Z,12.73
2017-11-25T08:11:29.862Z,13.90
2017-11-25T08:12:34.128Z,12.00
2017-11-25T08:13:38.406Z,13.70
2017-11-25T08:14:42.864Z,13.48
2017-11-25T08:15:48.132Z,13.62
2017-11-25T08:16:52.407Z,13.65
2017-11-25T08:17:57.631Z,12.50
2017-11-25T08:19:02.667Z,12.20
2017-11-25T08:20:07.924Z,12.30
2017-11-25T08:21:12.420Z,13.80
2017-11-25T08:22:16.403Z,12.95
2017-11-25T08:23:21.623Z,12.75
2017-11-25T08:24:26.843Z,12.93
2017-11-25T08:25:31.102Z,14.00
2017-11-25T08:26:35.645Z,13.02
2017-11-25T08:27:40.123Z,12.30
2017-11-25T08:28:44.582Z,13.35
2017-11-25T08:29:50.540Z,13.30
2017-11-25T08:30:55.759Z,11.50
2017-11-25T08:32:00.259Z,12.20
2017-11-25T08:33:04.518Z,11.88
2017-11-25T08:34:08.787Z,11.12
2017-11-25T08:35:14.080Z,12.00
2017-11-25T08:36:18.356Z,10.93
2017-11-25T08:37:22.823Z,12.02
2017-11-25T08:38:27.109Z,11.35
2017-11-25T08:39:31.551Z,10.68
2017-11-25T08:40:36.045Z,11.50
2017-11-25T08:41:40.495Z,12.02
2017-11-25T08:42:45.743Z,11.45
2017-11-25T08:43:50.199Z,11.32
2017-11-25T08:44:54.680Z,11.32
2017-11-25T08:45:59.227Z,10.95
2017-11-25T08:47:03.738Z,11.43
2017-11-25T08:48:08.303Z,11.70
2017-11-25T08:49:13.066Z,11.50
2017-11-25T08:50:17.527Z,10.93
2017-11-25T08:51:21.822Z,10.85
2017-11-25T08:52:27.059Z,11.52
2017-11-25T08:53:31.553Z,10.73
2017-11-25T08:54:36.008Z,11.65
2017-11-25T08:55:40.460Z,11.70
2017-11-25T08:56:44.927Z,12.98
2017-11-25T08:57:49.384Z,12.90
2017-11-25T08:58:53.668Z,11.15
2017-11-25T08:59:57.963Z,11.48
2017-11-25T09:01:02.630Z,13.18
2017-11-25T09:02:07.847Z,12.40
2017-11-25T09:03:11.976Z,11.88
2017-11-25T09:04:16.456Z,10.90
2017-11-25T09:05:20.911Z,11.90
2017-11-25T09:06:25.470Z,9.68
2017-11-25T09:07:29.904Z,13.85
2017-11-25T09:08:35.128Z,12.73
2017-11-25T09:09:39.611Z,11.95
2017-11-25T09:10:44.075Z,13.68
2017-11-25T09:11:48.531Z,12.30
2017-11-25T09:12:52.985Z,12.40
2017-11-25T09:13:58.211Z,12.60
2017-11-25T09:15:03.469Z,12.30
2017-11-25T09:16:07.954Z,14.48
2017-11-25T09:17:13.151Z,14.90
2017-11-25T09:18:18.429Z,13.52
2017-11-25T09:19:23.031Z,12.75
2017-11-25T09:20:28.283Z,11.70
2017-11-25T09:21:32.868Z,13.65
2017-11-25T09:22:38.176Z,12.15
2017-11-25T09:23:43.535Z,13.27
2017-11-25T09:24:49.636Z,14.75
2017-11-25T09:25:54.268Z,12.57
2017-11-25T09:26:58.789Z,14.05
2017-11-25T09:28:03.483Z,14.50
2017-11-25T09:29:08.116Z,13.65
2017-11-25T09:30:13.360Z,12.80
2017-11-25T09:31:19.523Z,14.25
2017-11-25T09:32:24.909Z,18.10
2017-11-25T09:33:29.385Z,13.88
2017-11-25T09:34:33.519Z,12.55
2017-11-25T09:35:38.052Z,11.98
2017-11-25T09:36:42.769Z,14.10
2017-11-25T09:37:47.279Z,13.00
2017-11-25T09:38:51.876Z,12.43
2017-11-25T09:39:56.417Z,12.32
2017-11-25T09:41:01.088Z,11.32
2017-11-25T09:42:05.399Z,11.85
2017-11-25T09:43:09.809Z,12.15
2017-11-25T09:44:14.352Z,13.32
2017-11-25T09:45:18.939Z,12.25
2017-11-25T09:46:23.500Z,11.93
2017-11-25T09:47:27.887Z,13.32
2017-11-25T09:48:32.404Z,14.90
2017-11-25T09:49:36.817Z,13.73
2017-11-25T09:50:41.748Z,14.55
2017-11-25T09:51:46.277Z,14.43
2017-11-25T09:52:50.996Z,13.65
2017-11-25T09:53:56.521Z,13.68
2017-11-25T09:55:00.932Z,12.75
2017-11-25T09:56:05.459Z,12.60
2017-11-25T09:57:10.959Z,12.68
2017-11-25T09:58:15.435Z,12.65
2017-11-25T09:59:19.879Z,11.40
2017-11-25T10:00:24.088Z,12.90
2017-11-25T10:01:28.909Z,10.85
2017-11-25T10:02:34.272Z,11.73
2017-11-25T10:03:39.800Z,11.32
2017-11-25T10:04:45.073Z,11.20
2017-11-25T10:05:49.542Z,11.12
2017-11-25T10:06:55.100Z,11.65
2017-11-25T10:07:59.872Z,11.60
2017-11-25T10:09:03.534Z,11.60
2017-11-25T10:10:07.895Z,10.20
2017-11-25T10:11:13.133Z,10.60
2017-11-25T10:12:18.533Z,10.20
2017-11-25T10:13:22.979Z,9.70
2017-11-25T10:14:28.360Z,9.52
2017-11-25T10:15:32.961Z,9.77
2017-11-25T10:16:37.505Z,10.45
2017-11-25T10:17:42.176Z,8.57
2017-11-25T10:18:46.745Z,10.13
2017-11-25T10:19:51.388Z,11.35
2017-11-25T10:20:56.888Z,9.40
2017-11-25T10:22:01.349Z,8.40
2017-11-25T10:23:08.170Z,8.85
2017-11-25T10:24:12.728Z,8.48
2017-11-25T10:25:17.205Z,9.02
2017-11-25T10:26:21.660Z,8.20
2017-11-25T10:27:25.785Z,8.88
2017-11-25T10:28:30.422Z,9.70
2017-11-25T10:29:35.024Z,8.35
2017-11-25T10:30:40.060Z,8.10
2017-11-25T10:31:44.596Z,10.48
2017-11-25T10:32:49.842Z,10.15
2017-11-25T10:33:54.303Z,10.50
2017-11-25T10:34:58.804Z,10.95
2017-11-25T10:36:03.437Z,10.38
2017-11-25T10:37:07.811Z,9.35
2017-11-25T10:38:12.562Z,9.40
2017-11-25T10:39:18.593Z,12.05
2017-11-25T10:40:23.419Z,9.57
2017-11-25T10:41:28.065Z,6.68
2017-11-25T10:42:32.331Z,7.03
2017-11-25T10:43:37.561Z,7.22
2017-11-25T10:44:44.524Z,6.68
2017-11-25T10:45:50.776Z,6.15
2017-11-25T10:46:58.595Z,6.47
2017-11-25T10:48:03.735Z,6.03
2017-11-25T10:49:08.541Z,6.35
2017-11-25T10:50:13.054Z,5.72
2017-11-25T10:51:17.770Z,6.28
2017-11-25T10:52:22.624Z,5.85
2017-11-25T10:53:27.430Z,5.90
2017-11-25T10:54:32.618Z,5.65
2017-11-25T10:55:37.840Z,5.45
2017-11-25T10:56:42.297Z,6.30
2017-11-25T10:57:46.389Z,6.63
2017-11-25T10:58:50.859Z,4.78
2017-11-25T10:59:55.349Z,5.32
2017-11-25T11:01:00.372Z,5.20
2017-11-25T11:02:05.658Z,4.10
2017-11-25T11:03:10.114Z,5.35
2017-11-25T11:04:15.243Z,3.70
2017-11-25T11:05:20.525Z,4.65
2017-11-25T11:06:25.388Z,5.80
2017-11-25T11:07:30.064Z,4.90
2017-11-25T11:08:35.417Z,3.95
2017-11-25T11:09:41.356Z,4.15
2017-11-25T11:10:45.581Z,4.65
2017-11-25T11:11:50.161Z,4.20
2017-11-25T11:12:54.891Z,4.12
2017-11-25T11:13:59.389Z,3.78
2017-11-25T11:15:04.823Z,3.95
2017-11-25T11:16:09.516Z,4.18
2017-11-25T11:17:14.198Z,4.65
2017-11-25T11:18:18.826Z,3.95
2017-11-25T11:19:23.299Z,3.58
2017-11-25T11:20:29.434Z,3.45
2017-11-25T11:21:34.673Z,3.72
2017-11-25T11:22:39.758Z,3.40
2017-11-25T11:23:44.199Z,3.42
2017-11-25T11:24:48.830Z,4.55
2017-11-25T11:25:53.642Z,3.92
2017-11-25T11:26:59.191Z,4.50
2017-11-25T11:28:04.200Z,5.30
2017-11-25T11:29:08.652Z,3.85
2017-11-25T11:30:13.884Z,3.67
2017-11-25T11:31:18.754Z,3.62
2017-11-25T11:32:23.848Z,2.70
2017-11-25T11:33:28.390Z,4.55
2017-11-25T11:34:33.010Z,5.78
2017-11-25T11:35:37.525Z,3.55
2017-11-25T11:36:41.954Z,2.92
2017-11-25T11:37:46.393Z,3.35
2017-11-25T11:38:50.829Z,5.70
2017-11-25T11:39:55.292Z,3.65
2017-11-25T11:40:59.890Z,3.37
2017-11-25T11:42:04.379Z,3.60
2017-11-25T11:43:08.855Z,3.15
2017-11-25T11:44:13.342Z,3.70
2017-11-25T11:45:17.995Z,3.92
2017-11-25T11:46:22.452Z,3.22
2017-11-25T11:47:26.895Z,3.05
2017-11-25T11:48:32.087Z,3.83
2017-11-25T11:49:36.547Z,4.18
2017-11-25T11:50:40.984Z,3.35
2017-11-25T11:51:45.629Z,5.18
2017-11-25T11:52:49.883Z,4.30
2017-11-25T11:53:53.908Z,4.45
2017-11-25T11:54:58.179Z,3.53
2017-11-25T11:56:02.846Z,3.60
2017-11-25T11:57:07.348Z,3.33
2017-11-25T11:58:11.823Z,2.12
2017-11-25T11:59:17.018Z,2.28
2017-11-25T12:00:21.263Z,2.95
2017-11-25T12:01:25.520Z,3.92
2017-11-25T12:02:29.978Z,3.05
2017-11-25T12:03:34.534Z,2.80
2017-11-25T12:04:39.004Z,2.60
2017-11-25T12:05:43.372Z,2.70
2017-11-25T12:06:47.810Z,3.20
2017-11-25T12:07:53.076Z,2.50
2017-11-25T12:08:57.520Z,3.40
2017-11-25T12:10:02.220Z,3.08
2017-11-25T12:11:06.490Z,2.28
2017-11-25T12:12:10.941Z,2.90
2017-11-25T12:13:15.219Z,2.50
2017-11-25T12:14:19.658Z,2.20
2017-11-25T12:15:24.128Z,2.58
2017-11-25T12:16:28.357Z,2.58
2017-11-25T12:17:32.810Z,2.55
2017-11-25T12:18:38.071Z,2.20
2017-11-25T12:19:42.508Z,2.10
2017-11-25T12:20:46.980Z,2.03
2017-11-25T12:21:51.982Z,2.25
2017-11-25T12:22:56.152Z,2.40
2017-11-25T12:24:00.916Z,4.00
2017-11-25T12:25:06.118Z,2.95
2017-11-25T12:26:10.652Z,2.75
2017-11-25T12:27:15.956Z,1.70
2017-11-25T12:28:20.671Z,1.58
2017-11-25T12:29:25.290Z,1.80
2017-11-25T12:30:29.757Z,1.80
2017-11-25T12:31:34.218Z,1.45
2017-11-25T12:32:38.835Z,35.85
2017-11-25T12:33:43.438Z,1.05
2017-11-25T12:34:47.922Z,1.27
2017-11-25T12:35:52.658Z,0.90
2017-11-25T12:36:57.176Z,0.95
2017-11-25T12:38:01.772Z,1.40
2017-11-25T12:39:05.953Z,1.40
2017-11-25T12:40:11.800Z,1.10
2017-11-25T12:41:16.561Z,1.37
2017-11-25T12:42:21.144Z,1.10
2017-11-25T12:43:25.900Z,1.05
2017-11-25T12:44:30.364Z,1.10
2017-11-25T12:45:35.616Z,1.35
2017-11-25T12:46:40.067Z,1.40
2017-11-25T12:47:44.308Z,0.90
2017-11-25T12:48:49.452Z,1.30
2017-11-25T12:49:53.894Z,1.25
2017-11-25T12:50:58.616Z,0.90
2017-11-25T12:52:05.021Z,1.20
2017-11-25T12:53:09.494Z,1.00
2017-11-25T12:54:14.001Z,1.10
2017-11-25T12:55:19.016Z,1.10
2017-11-25T12:56:23.738Z,1.10
2017-11-25T12:57:28.862Z,0.90
2017-11-25T12:58:33.579Z,1.15
2017-11-25T12:59:38.100Z,1.15
2017-11-25T13:00:44.168Z,1.35
2017-11-25T13:01:48.915Z,1.25
2017-11-25T13:02:54.138Z,1.15
2017-11-25T13:03:59.645Z,1.52
2017-11-25T13:05:04.464Z,1.30
2017-11-25T13:06:09.224Z,1.25
2017-11-25T13:07:14.130Z,1.30
2017-11-25T13:08:19.129Z,0.80
2017-11-25T13:09:24.152Z,0.80
2017-11-25T13:10:28.853Z,0.80
2017-11-25T13:11:33.526Z,0.70
2017-11-25T13:12:38.211Z,1.10
2017-11-25T13:13:42.818Z,0.80
2017-11-25T13:14:47.466Z,0.60
2017-11-25T13:15:53.070Z,0.60
2017-11-25T13:16:57.891Z,0.68
2017-11-25T13:18:02.813Z,0.60
2017-11-25T13:19:08.961Z,1.02
2017-11-25T13:20:13.678Z,0.52
2017-11-25T13:21:18.224Z,0.50
2017-11-25T13:22:22.677Z,0.50
2017-11-25T13:23:27.256Z,0.50
2017-11-25T13:24:32.854Z,0.70
2017-11-25T13:25:37.287Z,0.47
2017-11-25T13:26:41.746Z,0.60
2017-11-25T13:27:46.408Z,1.45
2017-11-25T13:28:51.029Z,0.80
2017-11-25T13:29:55.588Z,1.10
2017-11-25T13:31:00.078Z,0.80
2017-11-25T13:32:04.603Z,0.80
2017-11-25T13:33:09.107Z,0.70
2017-11-25T13:34:14.356Z,1.10
2017-11-25T13:35:18.928Z,1.40
2017-11-25T13:36:24.335Z,2.00
2017-11-25T13:37:28.861Z,1.37
2017-11-25T13:38:34.145Z,1.00
2017-11-25T13:39:38.692Z,1.30
2017-11-25T13:40:43.126Z,1.10
2017-11-25T13:41:48.428Z,2.70
2017-11-25T13:42:52.962Z,2.70
2017-11-25T13:43:58.184Z,1.83
2017-11-25T13:45:03.968Z,1.17
2017-11-25T13:46:09.041Z,1.30
2017-11-25T13:47:13.860Z,1.02
2017-11-25T13:48:18.304Z,0.90
2017-11-25T13:49:23.519Z,1.50
2017-11-25T13:50:27.991Z,1.12
2017-11-25T13:51:32.424Z,1.00
2017-11-25T13:52:36.940Z,1.10
2017-11-25T13:53:41.212Z,1.05
2017-11-25T13:54:45.695Z,1.35
2017-11-25T13:55:50.938Z,1.20
2017-11-25T13:56:55.228Z,1.48
2017-11-25T13:58:00.683Z,1.62
2017-11-25T13:59:05.220Z,1.40
2017-11-25T14:00:09.463Z,0.80
2017-11-25T14:01:15.590Z,1.30
2017-11-25T14:02:21.176Z,0.98
2017-11-25T14:03:25.845Z,1.40